This is the latest recevied weather packets stored in our database for station/object SQ9SMC-13. If no packets are shown the sender has not sent any weather packets the latest 10 day(s).
| Time | Temp. | Humidity | Pressure | Rain* | Wind** | Luminosity | Snow |
|---|---|---|---|---|---|---|---|
| 1777845003 | 14.44° C | 50% | 1017.5 hPa | 0 mm | - | 0 W/m² | - |
| 1777844703 | 15° C | 48% | 1017.4 hPa | 0 mm | - | 0 W/m² | - |
| 1777844103 | 15.56° C | 47% | 1017.4 hPa | 0 mm | - | 0 W/m² | - |
| 1777842004 | 15° C | 49% | 1017.3 hPa | 0 mm | - | 0 W/m² | - |
| 1777839903 | 9.44° C | 75% | 1017.6 hPa | 0 mm | - | 0 W/m² | - |
| 1777839603 | 9.44° C | 74% | 1017.3 hPa | 0 mm | - | 0 W/m² | - |
| 1777839303 | 10° C | 74% | 1017.5 hPa | 0 mm | - | 0 W/m² | - |
| 1777837503 | 10.56° C | 69% | 1017.5 hPa | 0 mm | - | 0 W/m² | - |
| 1777832703 | 16.67° C | 50% | 1017.2 hPa | 0 mm | - | 0 W/m² | - |
| 1777830903 | 21.67° C | 35% | 1017 hPa | 0 mm | - | 6 W/m² | - |
| 1777827305 | 23.33° C | 31% | 1016.8 hPa | 0 mm | - | 37 W/m² | - |
| 1777824604 | 25° C | 28% | 1016.9 hPa | 0 mm | - | 70 W/m² | - |
| 1777819803 | 25.56° C | 28% | 1017.4 hPa | 0 mm | - | 305 W/m² | - |
| 1777808103 | 25° C | 31% | 1019.4 hPa | 0 mm | - | 645 W/m² | - |
| 1777807204 | 24.44° C | 31% | 1019.3 hPa | 0 mm | - | 652 W/m² | - |
| 1777805704 | 25° C | 31% | 1019.6 hPa | 0 mm | - | 662 W/m² | - |
| 1777804503 | 23.33° C | 33% | 1019.9 hPa | 0 mm | - | 659 W/m² | - |
| 1777804204 | 24.44° C | 32% | 1019.8 hPa | 0 mm | - | 657 W/m² | - |
| 1777801203 | 22.78° C | 36% | 1020.4 hPa | 0 mm | - | 624 W/m² | - |
| 1777800905 | 22.78° C | 36% | 1020.2 hPa | 0 mm | - | 617 W/m² | - |
| 1777800604 | 22.78° C | 36% | 1020.3 hPa | 0 mm | - | 615 W/m² | - |
| 1777800302 | 22.22° C | 36% | 1020.5 hPa | 0 mm | - | 604 W/m² | - |
| 1777800003 | 21.67° C | 37% | 1020.4 hPa | 0 mm | - | 601 W/m² | - |
| 1777799705 | 22.22° C | 37% | 1020.6 hPa | 0 mm | - | 596 W/m² | - |
| 1777799404 | 21.67° C | 36% | 1020.5 hPa | 0 mm | - | 589 W/m² | - |
* Rain latest hour (hover to see other rain measurements)
** Current wind speed in m/s (hover to see current wind gust speed)